Time;durP1;ratioP1;P1;durP2;ratioP2;P2;SDS_P1;SDS_P2;PMS_P1;PMS_P2;Temp;Humidity;BMP_temperature;BMP_pressure;BME280_temperature;BME280_humidity;BME280_pressure;Samples;Min_cycle;Max_cycle;Signal;HPM_P1;HPM_P2
2022/12/29 00:01:16;;;;;;;1.90;1.52;;;10.00;99.90;;;;;;5006791;28;20061;-61
2022/12/29 00:03:42;;;;;;;3.55;1.90;;;10.00;99.90;;;;;;5025439;28;20100;-61
2022/12/29 00:06:08;;;;;;;2.30;2.10;;;10.00;99.90;;;;;;5024859;28;20076;-61
2022/12/29 00:08:39;;;;;;;1.90;1.65;;;10.00;99.90;;;;;;5024779;28;20535;-61
2022/12/29 00:11:16;;;;;;;3.88;2.10;;;10.00;99.90;;;;;;5011061;28;20400;-61
2022/12/29 00:16:28;;;;;;;3.75;2.80;;;10.10;99.90;;;;;;5025253;28;20037;-61
2022/12/29 00:18:53;;;;;;;2.60;2.45;;;10.10;99.90;;;;;;5024216;28;20041;-61
2022/12/29 00:35:44;;;;;;;1.23;1.17;;;10.10;99.90;;;;;;5025118;28;20473;-61
2022/12/29 00:46:25;;;;;;;1.92;1.80;;;10.10;99.90;;;;;;5006665;28;20045;-61
2022/12/29 00:51:35;;;;;;;7.60;2.70;;;10.10;99.90;;;;;;5024336;28;20057;-61
2022/12/29 00:54:01;;;;;;;2.15;1.88;;;10.20;99.90;;;;;;5024160;28;20569;-61
2022/12/29 00:56:26;;;;;;;4.68;2.50;;;10.20;99.90;;;;;;5024251;28;20049;-61
2022/12/29 00:58:52;;;;;;;3.63;1.70;;;10.20;99.90;;;;;;5002595;28;20050;-61
2022/12/29 01:01:18;;;;;;;5.35;2.42;;;10.20;99.90;;;;;;4996016;28;20045;-60
2022/12/29 01:03:45;;;;;;;1.35;1.25;;;10.20;99.90;;;;;;5024120;28;20420;-60
2022/12/29 01:06:11;;;;;;;1.77;1.67;;;10.30;99.90;;;;;;5024497;28;20045;-60
2022/12/29 01:08:37;;;;;;;2.30;2.10;;;10.30;99.90;;;;;;5024555;28;20142;-61
2022/12/29 01:11:09;;;;;;;3.35;2.70;;;10.30;99.90;;;;;;5023422;28;20084;-61
2022/12/29 01:13:37;;;;;;;3.47;3.20;;;10.30;99.90;;;;;;5006615;28;20057;-61
2022/12/29 01:16:05;;;;;;;3.17;2.97;;;10.30;99.90;;;;;;5024120;28;20539;-61
2022/12/29 01:18:31;;;;;;;3.25;3.00;;;10.30;99.90;;;;;;5024519;28;20045;-61
2022/12/29 01:21:03;;;;;;;2.58;1.58;;;10.30;99.90;;;;;;5024699;28;20048;-61
2022/12/29 01:23:29;;;;;;;3.35;2.78;;;10.30;99.90;;;;;;5023247;28;20172;-60
2022/12/29 01:25:55;;;;;;;3.75;2.85;;;10.30;99.90;;;;;;5024939;28;20042;-60
2022/12/29 01:28:21;;;;;;;2.78;2.55;;;10.40;99.90;;;;;;5024258;28;20045;-60
2022/12/29 01:30:47;;;;;;;1.88;1.77;;;10.40;99.90;;;;;;5024530;28;20044;-60
2022/12/29 01:33:13;;;;;;;3.78;2.28;;;10.40;99.90;;;;;;5020739;28;20053;-61
2022/12/29 01:35:39;;;;;;;3.35;2.42;;;10.40;99.90;;;;;;5006696;28;20115;-61
2022/12/29 01:38:05;;;;;;;5.10;2.67;;;10.40;99.90;;;;;;5024209;28;20442;-61
2022/12/29 01:40:31;;;;;;;3.00;1.90;;;10.40;99.90;;;;;;5023835;28;20499;-61
2022/12/29 01:42:57;;;;;;;1.80;1.60;;;10.40;99.90;;;;;;5023863;28;20056;-61
2022/12/29 01:45:23;;;;;;;6.93;2.67;;;10.40;99.90;;;;;;5023926;28;20046;-61
2022/12/29 01:48:00;;;;;;;2.38;2.17;;;10.40;99.90;;;;;;5024177;28;20109;-61
2022/12/29 01:50:42;;;;;;;3.70;2.17;;;10.50;99.90;;;;;;5023149;28;20076;-60
2022/12/29 01:53:18;;;;;;;2.55;1.90;;;10.50;99.90;;;;;;5024075;28;20053;-61
2022/12/29 01:55:53;;;;;;;1.58;1.50;;;10.50;99.90;;;;;;5023592;28;20519;-60
2022/12/29 01:58:24;;;;;;;3.10;2.30;;;10.50;99.90;;;;;;5024051;28;20132;-60
2022/12/29 02:00:49;;;;;;;;;;;10.50;99.90;;;;;;5024262;28;20054;-61
2022/12/29 02:03:17;;;;;;;2.90;1.52;;;10.50;99.90;;;;;;5004590;28;20285;-60
2022/12/29 02:06:06;;;;;;;2.28;2.10;;;10.50;99.90;;;;;;5023930;28;20037;-61
2022/12/29 02:08:33;;;;;;;6.27;2.63;;;10.40;99.90;;;;;;5024768;28;20128;-61
2022/12/29 02:11:00;;;;;;;5.07;2.78;;;10.40;99.90;;;;;;5027221;28;20119;-61
2022/12/29 02:13:27;;;;;;;3.83;3.00;;;10.40;99.90;;;;;;5027363;28;20049;-61
2022/12/29 02:16:06;;;;;;;2.85;2.33;;;10.40;99.90;;;;;;5026193;28;20079;-61
2022/12/29 02:18:35;;;;;;;4.97;2.42;;;10.30;99.90;;;;;;5027843;28;20045;-61
2022/12/29 02:21:38;;;;;;;10.60;3.00;;;10.30;99.90;;;;;;5027434;28;20045;-60
2022/12/29 02:24:15;;;;;;;5.68;2.63;;;10.20;99.90;;;;;;5009267;28;20057;-61
2022/12/29 02:26:59;;;;;;;2.17;1.73;;;10.20;99.90;;;;;;4996663;28;20057;-61
2022/12/29 02:29:44;;;;;;;3.78;2.03;;;10.20;99.90;;;;;;5027072;28;20407;-60
2022/12/29 02:32:42;;;;;;;3.35;1.70;;;10.20;99.90;;;;;;4991043;28;20046;-61
2022/12/29 02:35:39;;;;;;;3.72;2.17;;;10.20;99.90;;;;;;5014728;28;20029;-61
2022/12/29 02:38:20;;;;;;;2.25;2.10;;;10.20;99.90;;;;;;5026931;28;20041;-61
2022/12/29 02:40:48;;;;;;;5.25;2.30;;;10.20;99.90;;;;;;5026421;28;20045;-61
2022/12/29 02:43:15;;;;;;;5.72;2.58;;;10.20;99.90;;;;;;5026950;28;20049;-61
2022/12/29 02:46:03;;;;;;;2.55;2.25;;;10.20;99.90;;;;;;5026425;28;20053;-61
2022/12/29 02:48:38;;;;;;;6.18;2.55;;;10.20;99.90;;;;;;5027097;28;20033;-61
2022/12/29 02:51:08;;;;;;;2.47;2.20;;;10.30;99.90;;;;;;5025959;28;20095;-61
2022/12/29 02:56:21;;;;;;;1.50;1.38;;;10.30;99.90;;;;;;5026806;28;20061;-61
2022/12/29 02:58:48;;;;;;;2.95;1.90;;;10.30;99.90;;;;;;5025823;28;20084;-61
2022/12/29 03:01:25;;;;;;;3.38;2.60;;;10.30;99.90;;;;;;5005215;28;20515;-61
2022/12/29 03:04:31;;;;;;;4.28;2.13;;;10.20;99.90;;;;;;5024962;28;20045;-61
2022/12/29 03:07:18;;;;;;;3.83;2.15;;;10.20;99.90;;;;;;5026226;28;20045;-61
2022/12/29 03:10:26;;;;;;;2.30;2.05;;;10.20;99.90;;;;;;5026722;28;20406;-61
2022/12/29 03:16:04;;;;;;;4.35;1.90;;;10.20;99.90;;;;;;5025872;28;20049;-61
2022/12/29 03:18:48;;;;;;;3.08;2.03;;;10.20;99.90;;;;;;5026520;28;20124;-61
2022/12/29 03:22:26;;;;;;;3.05;1.55;;;10.20;99.90;;;;;;5024803;28;20049;-61
2022/12/29 03:24:15;;;;;;;1.38;1.27;;;10.20;99.90;;;;;;5020953;28;20060;-61
2022/12/29 03:26:42;;;;;;;4.82;1.40;;;10.20;99.90;;;;;;5026445;28;20554;-61
2022/12/29 03:29:09;;;;;;;2.67;1.08;;;10.20;99.90;;;;;;5007287;28;20498;-62
2022/12/29 03:31:37;;;;;;;2.00;1.17;;;10.30;99.90;;;;;;5026082;28;20505;-61
2022/12/29 03:34:05;;;;;;;3.22;1.42;;;10.30;99.90;;;;;;5006840;28;20060;-61
2022/12/29 03:36:42;;;;;;;1.35;1.30;;;10.30;99.90;;;;;;5007804;28;20132;-61
2022/12/29 03:39:11;;;;;;;1.60;1.33;;;10.30;99.90;;;;;;5024865;28;20045;-61
2022/12/29 03:41:39;;;;;;;2.10;1.35;;;10.30;99.90;;;;;;5025656;28;20397;-61
2022/12/29 03:44:07;;;;;;;4.00;1.23;;;10.30;99.90;;;;;;5003542;28;20058;-61
2022/12/29 03:46:33;;;;;;;2.55;0.93;;;10.40;99.90;;;;;;5021091;28;20045;-61
2022/12/29 03:48:58;;;;;;;2.67;1.15;;;10.30;99.90;;;;;;5025404;28;20041;-61
2022/12/29 03:51:24;;;;;;;2.42;0.82;;;10.30;99.90;;;;;;5025535;28;20555;-61
2022/12/29 03:53:50;;;;;;;3.58;0.90;;;10.40;99.90;;;;;;5007635;28;20037;-61
2022/12/29 03:56:16;;;;;;;1.30;0.98;;;10.30;99.90;;;;;;5004298;28;20496;-61
2022/12/29 03:58:42;;;;;;;1.42;0.90;;;10.30;99.90;;;;;;5024338;28;20060;-61
2022/12/29 04:01:08;;;;;;;3.13;0.70;;;10.30;99.90;;;;;;5025429;28;20044;-61
2022/12/29 04:03:33;;;;;;;2.15;0.55;;;10.20;99.90;;;;;;5025086;28;20045;-61
2022/12/29 04:05:59;;;;;;;3.15;0.80;;;10.10;99.90;;;;;;5025931;28;20049;-61
2022/12/29 04:08:25;;;;;;;7.53;1.08;;;10.20;99.90;;;;;;5024442;28;20058;-61
2022/12/29 04:10:51;;;;;;;5.50;1.10;;;10.10;99.90;;;;;;4977691;28;20085;-61
2022/12/29 04:13:17;;;;;;;0.80;0.80;;;10.10;99.90;;;;;;4988341;28;20057;-61
2022/12/29 04:15:44;;;;;;;7.32;1.08;;;10.10;99.90;;;;;;5000344;28;20119;-61
2022/12/29 04:18:11;;;;;;;1.13;0.95;;;10.10;99.90;;;;;;5024598;28;20049;-60
2022/12/29 04:23:38;;;;;;;1.65;0.93;;;10.20;99.90;;;;;;4925736;29;20576;-61
2022/12/29 04:26:08;;;;;;;4.55;1.15;;;10.20;99.90;;;;;;4990151;28;20242;-61
2022/12/29 04:28:35;;;;;;;5.03;1.00;;;10.20;99.90;;;;;;5006879;28;20120;-61
2022/12/29 04:31:01;;;;;;;1.17;0.60;;;10.20;99.90;;;;;;5005790;28;20049;-61
2022/12/29 04:33:27;;;;;;;0.85;0.60;;;10.30;99.90;;;;;;5024502;28;20041;-61
2022/12/29 04:35:53;;;;;;;7.55;1.13;;;10.30;99.90;;;;;;5007811;28;20089;-60
2022/12/29 04:38:39;;;;;;;4.40;1.08;;;10.30;99.90;;;;;;5023679;28;20046;-61
2022/12/29 04:41:05;;;;;;;2.50;0.57;;;10.20;99.90;;;;;;5007253;28;20041;-61
2022/12/29 04:43:31;;;;;;;1.35;0.68;;;10.20;99.90;;;;;;5003563;28;20136;-61
2022/12/29 04:45:56;;;;;;;2.60;0.60;;;10.20;99.90;;;;;;5016631;28;20045;-60
2022/12/29 04:48:22;;;;;;;2.80;0.63;;;10.20;99.90;;;;;;5024674;28;20415;-61
2022/12/29 04:50:50;;;;;;;2.40;0.35;;;10.30;99.90;;;;;;5024292;28;20049;-61
2022/12/29 04:53:16;;;;;;;4.25;0.55;;;10.30;99.90;;;;;;5024450;28;20125;-61
2022/12/29 04:55:42;;;;;;;2.38;0.90;;;10.30;99.90;;;;;;5024468;28;20400;-60
2022/12/29 04:58:08;;;;;;;2.22;0.70;;;10.30;99.90;;;;;;5024683;28;20045;-60
2022/12/29 05:00:34;;;;;;;3.92;1.20;;;10.30;99.90;;;;;;5023727;28;20056;-61
2022/12/29 05:03:00;;;;;;;3.13;0.80;;;10.30;99.90;;;;;;5024808;28;20121;-61
2022/12/29 05:05:26;;;;;;;5.78;0.95;;;10.30;99.90;;;;;;5024748;28;20044;-61
2022/12/29 05:07:51;;;;;;;4.03;0.80;;;10.30;99.90;;;;;;4990805;28;20052;-61
2022/12/29 05:10:19;;;;;;;3.63;0.50;;;10.30;99.90;;;;;;5020823;28;20042;-61
2022/12/29 05:12:44;;;;;;;7.60;1.02;;;10.30;99.90;;;;;;5023774;28;20059;-61
2022/12/29 05:15:11;;;;;;;3.42;0.70;;;10.30;99.90;;;;;;5006850;28;20128;-61
2022/12/29 05:17:37;;;;;;;2.30;0.60;;;10.20;99.90;;;;;;5006342;28;20061;-60
2022/12/29 05:20:05;;;;;;;6.40;0.93;;;10.20;99.90;;;;;;5024227;28;20045;-60
2022/12/29 05:22:30;;;;;;;5.40;0.95;;;10.20;99.90;;;;;;5003912;28;20049;-61
2022/12/29 05:24:56;;;;;;;6.53;0.77;;;10.10;99.90;;;;;;5006658;28;20103;-61
2022/12/29 05:27:22;;;;;;;7.32;0.90;;;10.10;99.90;;;;;;5006233;28;20037;-61
2022/12/29 05:29:47;;;;;;;6.32;1.08;;;10.10;99.90;;;;;;5007501;28;20038;-60
2022/12/29 05:32:14;;;;;;;0.65;0.52;;;10.00;99.90;;;;;;5010603;28;20046;-61
2022/12/29 05:34:40;;;;;;;6.55;0.65;;;10.00;99.90;;;;;;5006555;28;20072;-61
2022/12/29 05:37:06;;;;;;;7.00;1.10;;;10.00;99.90;;;;;;5005356;28;20046;-60
2022/12/29 05:39:32;;;;;;;11.60;1.10;;;9.90;99.90;;;;;;4987745;28;20525;-61
2022/12/29 05:41:57;;;;;;;4.30;0.80;;;9.90;99.90;;;;;;5012289;28;20041;-60
2022/12/29 05:44:23;;;;;;;4.00;0.95;;;9.80;99.90;;;;;;5025960;28;20041;-60
2022/12/29 05:46:49;;;;;;;7.60;1.40;;;9.80;99.90;;;;;;5010019;28;20906;-60
2022/12/29 05:49:15;;;;;;;4.50;0.93;;;9.80;99.90;;;;;;5025131;28;20065;-60
2022/12/29 05:51:41;;;;;;;12.02;1.30;;;9.80;99.90;;;;;;5013029;28;20075;-61
2022/12/29 05:54:07;;;;;;;6.50;1.25;;;9.70;99.90;;;;;;5027422;28;20479;-61
2022/12/29 05:56:33;;;;;;;9.35;1.05;;;9.70;99.90;;;;;;5026006;28;20072;-61
2022/12/29 05:59:00;;;;;;;6.93;0.93;;;9.60;99.90;;;;;;5008065;28;20072;-60
2022/12/29 06:01:25;;;;;;;10.35;1.35;;;9.60;99.90;;;;;;4995443;28;20048;-61
2022/12/29 06:03:51;;;;;;;7.00;1.42;;;9.60;99.90;;;;;;5027288;28;20058;-61
2022/12/29 06:06:18;;;;;;;8.90;1.35;;;9.60;99.90;;;;;;5009429;28;20110;-61
2022/12/29 06:08:43;;;;;;;5.82;1.27;;;9.60;99.90;;;;;;5027031;28;20124;-61
2022/12/29 06:11:09;;;;;;;9.55;1.63;;;9.60;99.90;;;;;;5013673;28;20186;-61
2022/12/29 06:13:35;;;;;;;9.20;1.55;;;9.60;99.90;;;;;;5026898;28;20033;-61
2022/12/29 06:16:01;;;;;;;7.45;1.13;;;9.50;99.90;;;;;;5027714;28;20088;-60
2022/12/29 06:18:26;;;;;;;9.50;1.88;;;9.50;99.90;;;;;;5026885;28;20048;-60
2022/12/29 06:20:52;;;;;;;5.05;1.17;;;9.50;99.90;;;;;;5027277;28;20117;-61
2022/12/29 06:23:18;;;;;;;16.13;1.40;;;9.40;99.90;;;;;;5008451;28;20081;-60
2022/12/29 06:25:46;;;;;;;15.48;1.55;;;9.40;99.90;;;;;;5027224;28;20079;-61
2022/12/29 06:28:12;;;;;;;6.25;1.13;;;9.40;99.90;;;;;;5027071;28;20487;-61
2022/12/29 06:30:38;;;;;;;9.45;1.40;;;9.30;99.90;;;;;;5005553;28;20420;-60
2022/12/29 06:33:04;;;;;;;10.57;1.35;;;9.40;99.90;;;;;;5005660;28;20038;-60
2022/12/29 06:35:30;;;;;;;6.32;0.82;;;9.40;99.90;;;;;;5022247;28;20041;-60
2022/12/29 06:37:55;;;;;;;6.25;0.85;;;9.50;99.90;;;;;;5009179;28;20060;-61
2022/12/29 06:40:21;;;;;;;2.17;0.52;;;9.60;99.90;;;;;;5005681;28;20049;-60
2022/12/29 06:42:49;;;;;;;6.50;0.85;;;9.60;99.90;;;;;;5003270;28;20411;-60
2022/12/29 06:45:15;;;;;;;3.45;0.50;;;9.60;99.90;;;;;;5017503;28;20053;-60
2022/12/29 06:47:40;;;;;;;9.70;2.17;;;9.60;99.90;;;;;;5026584;28;20045;-60
2022/12/29 06:50:06;;;;;;;2.35;0.88;;;9.60;99.90;;;;;;4989722;28;20046;-60
2022/12/29 06:52:32;;;;;;;5.75;1.10;;;9.60;99.90;;;;;;4998489;28;20055;-61
2022/12/29 06:54:58;;;;;;;14.93;1.90;;;9.50;99.90;;;;;;5025759;28;20049;-61
2022/12/29 06:57:26;;;;;;;6.80;1.20;;;9.50;99.90;;;;;;5025865;28;20537;-61
2022/12/29 06:59:52;;;;;;;10.85;1.35;;;9.50;99.90;;;;;;5008852;28;20579;-60
2022/12/29 07:02:19;;;;;;;17.70;1.65;;;9.40;99.90;;;;;;5008798;28;20124;-61
2022/12/29 07:04:45;;;;;;;13.23;2.10;;;9.40;99.90;;;;;;5026326;28;20116;-60
2022/12/29 07:07:10;;;;;;;9.00;1.30;;;9.30;99.90;;;;;;5026317;28;20488;-60
2022/12/29 07:09:36;;;;;;;12.35;1.60;;;9.30;99.90;;;;;;5019098;28;20050;-60
2022/12/29 07:12:02;;;;;;;21.20;1.70;;;9.30;99.90;;;;;;5001816;28;20060;-60
2022/12/29 07:14:28;;;;;;;19.17;2.53;;;9.30;99.90;;;;;;5026181;28;20041;-60
2022/12/29 07:16:54;;;;;;;10.43;1.88;;;9.20;99.90;;;;;;5008397;28;20045;-60
2022/12/29 07:19:20;;;;;;;16.10;1.58;;;9.20;99.90;;;;;;5025890;28;20049;-60
2022/12/29 07:21:45;;;;;;;9.27;1.52;;;9.20;99.90;;;;;;5008142;28;20136;-61
2022/12/29 07:24:11;;;;;;;13.77;1.98;;;9.20;99.90;;;;;;5026217;28;20045;-61
2022/12/29 07:26:37;;;;;;;15.25;2.28;;;9.20;99.90;;;;;;5025143;28;20422;-61
2022/12/29 07:29:04;;;;;;;11.98;2.08;;;9.20;99.90;;;;;;5026836;28;20400;-61
2022/12/29 07:31:30;;;;;;;2.20;0.70;;;9.20;99.90;;;;;;5007361;28;20073;-61
2022/12/29 07:33:56;;;;;;;12.52;2.15;;;9.20;99.90;;;;;;5008403;28;20072;-61
2022/12/29 07:36:21;;;;;;;17.35;2.28;;;9.20;99.90;;;;;;5007609;28;20403;-61
2022/12/29 07:38:47;;;;;;;8.00;1.10;;;9.20;99.90;;;;;;5025521;28;20045;-60
2022/12/29 07:41:13;;;;;;;8.73;1.80;;;9.20;99.90;;;;;;5026346;28;20049;-60
2022/12/29 07:43:39;;;;;;;6.93;1.25;;;9.20;99.90;;;;;;5007283;28;20492;-60
2022/12/29 07:46:05;;;;;;;11.32;2.35;;;9.10;99.90;;;;;;5005136;28;20053;-60
2022/12/29 07:48:33;;;;;;;8.27;1.60;;;9.20;99.90;;;;;;5023828;28;20040;-60
2022/12/29 07:50:59;;;;;;;7.38;1.13;;;9.20;99.90;;;;;;5008132;28;20045;-60
2022/12/29 07:53:24;;;;;;;19.65;1.88;;;9.20;99.90;;;;;;5025053;28;20072;-60
2022/12/29 07:55:50;;;;;;;15.00;1.67;;;9.30;99.90;;;;;;5025057;28;20068;-60
2022/12/29 07:58:15;;;;;;;15.35;1.95;;;9.40;99.90;;;;;;5025698;28;20052;-60
2022/12/29 08:00:41;;;;;;;20.73;2.05;;;9.40;99.90;;;;;;5006626;28;20119;-60
2022/12/29 08:03:07;;;;;;;11.25;1.52;;;9.50;99.90;;;;;;5025856;28;20112;-60
2022/12/29 08:05:34;;;;;;;10.98;1.38;;;9.50;99.90;;;;;;5024044;28;20043;-60
2022/12/29 08:07:59;;;;;;;7.13;1.30;;;9.50;99.90;;;;;;5024980;28;20041;-60
2022/12/29 08:10:27;;;;;;;13.55;2.03;;;9.50;99.90;;;;;;5014870;28;20041;-60
2022/12/29 08:12:52;;;;;;;6.32;1.05;;;9.50;99.90;;;;;;5025549;28;20033;-60
2022/12/29 08:15:18;;;;;;;18.90;2.47;;;9.50;99.90;;;;;;5007101;28;20554;-60
2022/12/29 08:17:44;;;;;;;12.38;1.63;;;9.50;99.90;;;;;;5024611;28;20038;-60
2022/12/29 08:20:10;;;;;;;11.82;1.98;;;9.50;99.90;;;;;;5006878;28;20053;-60
2022/12/29 08:22:36;;;;;;;6.25;1.02;;;9.60;99.90;;;;;;5022617;28;20088;-60
2022/12/29 08:25:02;;;;;;;16.88;2.05;;;9.60;99.90;;;;;;5007401;28;20080;-60
2022/12/29 08:27:28;;;;;;;5.07;1.30;;;9.60;99.90;;;;;;5024709;28;20120;-60
2022/12/29 08:29:54;;;;;;;11.48;1.55;;;9.60;99.90;;;;;;5006964;28;20508;-60
2022/12/29 08:32:19;;;;;;;5.80;1.30;;;9.60;99.90;;;;;;5024782;28;20053;-60
2022/12/29 08:34:46;;;;;;;10.30;1.58;;;9.60;99.90;;;;;;5005037;28;20042;-60
2022/12/29 08:37:11;;;;;;;7.80;1.40;;;9.60;99.90;;;;;;5025315;28;20041;-60
2022/12/29 08:39:37;;;;;;;14.02;2.10;;;9.60;99.90;;;;;;5006170;28;20052;-60
2022/12/29 08:42:03;;;;;;;11.68;1.55;;;9.60;99.90;;;;;;5025116;28;20041;-60
2022/12/29 08:44:29;;;;;;;18.88;2.40;;;9.50;99.90;;;;;;4997849;28;20060;-60
2022/12/29 08:46:54;;;;;;;10.70;1.52;;;9.50;99.90;;;;;;5024188;28;20042;-60
2022/12/29 08:49:20;;;;;;;10.27;2.28;;;9.50;99.90;;;;;;5006687;28;20373;-60
2022/12/29 08:51:46;;;;;;;16.70;2.80;;;9.50;99.90;;;;;;4990523;28;20045;-60
2022/12/29 08:54:12;;;;;;;17.13;1.85;;;9.50;99.90;;;;;;5023835;28;20053;-61
2022/12/29 08:56:38;;;;;;;11.75;2.15;;;9.50;99.90;;;;;;5023101;28;20061;-61
2022/12/29 08:59:04;;;;;;;9.57;1.75;;;9.60;99.90;;;;;;5024475;28;20411;-60
2022/12/29 09:01:30;;;;;;;10.10;1.30;;;9.50;99.90;;;;;;5023336;28;20060;-60
2022/12/29 09:03:56;;;;;;;12.82;2.47;;;9.40;99.90;;;;;;5020789;28;20042;-60
2022/12/29 09:06:22;;;;;;;16.20;2.17;;;9.30;99.90;;;;;;5012396;28;20056;-61
2022/12/29 09:08:48;;;;;;;17.63;2.67;;;9.20;99.90;;;;;;5012040;28;20037;-60
2022/12/29 09:11:23;;;;;;;22.98;3.00;;;9.20;99.90;;;;;;5018092;28;20030;-61
2022/12/29 09:13:49;;;;;;;9.07;1.70;;;9.10;99.90;;;;;;5004749;28;20044;-61
2022/12/29 09:16:15;;;;;;;22.42;2.63;;;9.10;99.90;;;;;;5022819;28;20037;-60
2022/12/29 09:18:42;;;;;;;25.98;3.25;;;9.10;99.90;;;;;;5024124;28;20526;-61
2022/12/29 09:21:10;;;;;;;16.70;2.38;;;9.20;99.90;;;;;;5028646;28;20454;-61
2022/12/29 09:23:36;;;;;;;26.58;3.17;;;9.20;99.90;;;;;;5027425;28;20423;-60
2022/12/29 09:26:03;;;;;;;11.63;1.95;;;9.20;99.90;;;;;;5019744;28;20115;-61
2022/12/29 09:28:30;;;;;;;13.60;2.40;;;9.30;99.90;;;;;;5027417;28;20045;-60
2022/12/29 09:30:57;;;;;;;16.38;2.42;;;9.30;99.90;;;;;;5026699;28;20115;-61
2022/12/29 09:33:24;;;;;;;9.45;1.60;;;9.30;99.90;;;;;;5027960;28;20045;-60
2022/12/29 09:35:55;;;;;;;14.52;2.67;;;9.40;99.90;;;;;;5009566;28;20077;-61
2022/12/29 09:38:22;;;;;;;13.57;1.73;;;9.40;99.90;;;;;;5028343;28;20116;-61
2022/12/29 09:40:57;;;;;;;13.57;1.42;;;9.40;99.90;;;;;;5008936;28;20049;-60
2022/12/29 09:43:41;;;;;;;19.40;2.38;;;9.40;99.90;;;;;;5027620;28;20532;-60
2022/12/29 09:46:18;;;;;;;23.23;3.15;;;9.40;99.90;;;;;;5017049;28;20488;-60
2022/12/29 09:48:48;;;;;;;9.70;1.75;;;9.40;99.90;;;;;;5003167;28;20045;-60
2022/12/29 09:51:21;;;;;;;13.80;1.38;;;9.30;99.90;;;;;;5008967;28;20121;-61
2022/12/29 09:53:56;;;;;;;10.68;1.25;;;9.30;99.90;;;;;;5011845;28;20103;-61
2022/12/29 09:56:25;;;;;;;9.68;1.73;;;9.20;99.90;;;;;;4991929;28;20068;-61
2022/12/29 09:58:59;;;;;;;13.55;2.47;;;9.20;99.90;;;;;;5008449;28;20123;-61
2022/12/29 10:01:51;;;;;;;24.48;2.85;;;9.20;99.90;;;;;;5018820;28;20085;-61
2022/12/29 10:04:17;;;;;;;16.13;1.75;;;9.20;99.90;;;;;;5016785;28;20040;-61
2022/12/29 10:07:03;;;;;;;6.15;1.25;;;9.20;99.90;;;;;;5021358;28;20488;-60
2022/12/29 10:09:40;;;;;;;15.20;2.40;;;9.20;99.90;;;;;;5012236;28;20045;-61
2022/12/29 10:12:19;;;;;;;29.75;3.22;;;9.20;99.90;;;;;;5009462;28;20049;-61
2022/12/29 10:15:00;;;;;;;10.68;1.80;;;9.20;99.90;;;;;;5011182;28;20042;-61
2022/12/29 10:17:53;;;;;;;10.82;1.60;;;9.20;99.90;;;;;;5027444;28;20051;-60
2022/12/29 10:20:31;;;;;;;12.65;2.22;;;9.30;99.90;;;;;;5017815;28;20184;-61
2022/12/29 10:23:12;;;;;;;16.00;2.80;;;9.30;99.90;;;;;;5026116;28;20073;-60
2022/12/29 10:25:41;;;;;;;6.00;1.30;;;9.30;99.90;;;;;;5026907;28;20038;-61
2022/12/29 10:28:20;;;;;;;6.47;1.17;;;9.30;99.90;;;;;;5007986;28;20049;-61
2022/12/29 10:30:49;;;;;;;10.95;1.83;;;9.30;99.90;;;;;;5025540;28;20083;-61
2022/12/29 10:33:27;;;;;;;15.82;1.75;;;9.30;99.90;;;;;;5026013;28;20510;-61
2022/12/29 10:35:53;;;;;;;10.45;1.33;;;9.30;99.90;;;;;;5008270;28;20056;-61
2022/12/29 10:39:04;;;;;;;6.45;1.33;;;9.20;99.90;;;;;;5026803;28;20041;-61
2022/12/29 10:41:46;;;;;;;19.70;2.28;;;9.20;99.90;;;;;;4990012;28;20053;-61
2022/12/29 10:44:17;;;;;;;13.95;2.00;;;9.20;99.90;;;;;;4994403;28;20053;-61
2022/12/29 10:46:46;;;;;;;10.60;1.35;;;9.10;99.90;;;;;;5010836;28;20125;-61
2022/12/29 10:49:17;;;;;;;3.40;1.15;;;9.10;99.90;;;;;;4997611;28;20042;-61
2022/12/29 10:51:47;;;;;;;12.60;1.95;;;9.10;99.90;;;;;;5012903;28;20420;-61
2022/12/29 10:54:32;;;;;;;12.18;2.35;;;9.10;99.90;;;;;;5016158;28;20071;-61
2022/12/29 10:57:08;;;;;;;10.57;1.33;;;9.10;99.90;;;;;;4986933;28;20105;-61
2022/12/29 10:59:36;;;;;;;13.13;1.98;;;9.10;99.90;;;;;;4987310;28;20128;-61
2022/12/29 11:02:04;;;;;;;16.35;1.67;;;9.00;99.90;;;;;;4983368;28;20386;-61
2022/12/29 11:04:49;;;;;;;6.10;1.05;;;9.00;99.90;;;;;;4982156;28;20050;-61
2022/12/29 11:07:18;;;;;;;16.83;2.72;;;9.00;99.90;;;;;;4982882;28;20046;-61
2022/12/29 11:09:45;;;;;;;9.82;1.40;;;9.00;99.90;;;;;;4978340;28;20410;-61
2022/12/29 11:12:29;;;;;;;20.60;2.10;;;9.00;99.90;;;;;;4985186;28;20129;-61
2022/12/29 11:15:09;;;;;;;10.73;1.42;;;9.00;99.90;;;;;;4983157;28;20054;-61
2022/12/29 11:17:49;;;;;;;1.83;0.57;;;9.00;99.90;;;;;;4997916;28;20062;-61
2022/12/29 11:20:37;;;;;;;12.85;1.92;;;9.00;99.90;;;;;;4986105;28;20050;-61
2022/12/29 11:23:24;;;;;;;12.25;1.95;;;9.00;99.90;;;;;;4984904;28;20081;-61
2022/12/29 11:26:14;;;;;;;3.75;1.05;;;9.10;99.90;;;;;;4971493;28;20050;-62
2022/12/29 11:28:43;;;;;;;15.65;1.85;;;9.10;99.90;;;;;;4986119;28;20050;-61
2022/12/29 11:31:10;;;;;;;15.00;1.85;;;9.10;99.90;;;;;;4985520;28;20039;-61
2022/12/29 11:33:38;;;;;;;14.48;2.05;;;9.20;99.90;;;;;;4985829;28;20050;-61
2022/12/29 11:36:06;;;;;;;22.27;2.65;;;9.20;99.90;;;;;;4985230;28;20069;-61
2022/12/29 11:38:53;;;;;;;18.80;2.30;;;9.30;99.90;;;;;;4987116;28;20113;-61
2022/12/29 11:41:27;;;;;;;19.65;2.50;;;9.30;99.90;;;;;;4984877;28;20046;-61
2022/12/29 11:43:56;;;;;;;17.70;2.20;;;9.40;99.90;;;;;;4986544;28;20057;-61
2022/12/29 11:46:29;;;;;;;21.88;3.25;;;9.40;99.90;;;;;;4986101;28;20057;-61
2022/12/29 11:48:59;;;;;;;21.27;3.08;;;9.40;99.90;;;;;;4986726;28;20133;-61
2022/12/29 11:51:27;;;;;;;;;;;9.50;99.90;;;;;;4986798;28;20065;-61
2022/12/29 11:53:59;;;;;;;14.10;2.08;;;9.50;99.90;;;;;;4985846;28;19922;-61
2022/12/29 11:56:42;;;;;;;19.40;2.78;;;9.60;99.90;;;;;;5019573;28;20057;-61
2022/12/29 11:59:27;;;;;;;26.05;3.10;;;9.60;99.90;;;;;;5024598;28;20049;-60
2022/12/29 12:01:54;;;;;;;24.88;2.80;;;9.60;99.90;;;;;;5007322;28;20320;-61
2022/12/29 12:04:24;;;;;;;23.40;2.70;;;9.60;99.90;;;;;;5007231;28;20381;-61
2022/12/29 12:07:12;;;;;;;10.23;1.00;;;9.70;99.90;;;;;;5024377;28;20055;-60
2022/12/29 12:09:54;;;;;;;14.23;1.75;;;9.70;99.90;;;;;;5018766;28;20365;-61
2022/12/29 12:12:32;;;;;;;20.55;2.13;;;9.70;99.90;;;;;;5023814;28;20503;-60
2022/12/29 12:14:59;;;;;;;23.55;3.33;;;9.70;99.90;;;;;;5003714;28;20054;-61
2022/12/29 12:17:53;;;;;;;23.90;2.42;;;9.80;99.90;;;;;;4999605;28;20412;-61
2022/12/29 12:20:19;;;;;;;19.65;3.30;;;9.80;99.90;;;;;;5015913;28;20107;-61
2022/12/29 12:23:08;;;;;;;35.65;3.33;;;9.80;99.90;;;;;;5024761;28;20041;-61
2022/12/29 12:25:40;;;;;;;33.60;4.73;;;9.70;99.90;;;;;;5016035;28;20037;-61
2022/12/29 12:28:41;;;;;;;27.77;2.72;;;9.70;99.90;;;;;;5006074;28;20128;-62
2022/12/29 12:31:31;;;;;;;20.08;2.70;;;9.70;99.90;;;;;;4995695;28;20085;-60
2022/12/29 12:34:02;;;;;;;8.20;1.08;;;9.70;99.90;;;;;;5024062;28;20041;-59
2022/12/29 12:36:54;;;;;;;18.63;1.83;;;9.60;99.90;;;;;;5023984;28;20127;-59
2022/12/29 12:39:47;;;;;;;12.48;1.88;;;9.70;99.90;;;;;;5018031;28;20495;-60
2022/12/29 12:42:12;;;;;;;12.68;1.75;;;9.70;99.90;;;;;;5020748;28;20128;-60
2022/12/29 12:44:38;;;;;;;21.85;3.15;;;9.70;99.90;;;;;;5024553;28;20133;-60
2022/12/29 12:47:29;;;;;;;14.15;2.40;;;9.70;99.90;;;;;;5006680;28;20060;-60
2022/12/29 12:50:07;;;;;;;11.90;1.95;;;9.70;99.90;;;;;;5020884;28;20111;-59
2022/12/29 12:52:40;;;;;;;18.63;2.63;;;9.70;99.90;;;;;;5025307;28;20048;-59
2022/12/29 12:55:44;;;;;;;18.27;3.20;;;9.80;99.90;;;;;;5022116;28;20059;-60
2022/12/29 12:58:41;;;;;;;9.65;1.45;;;9.90;99.90;;;;;;5024163;28;20033;-60
2022/12/29 13:01:28;;;;;;;11.65;1.75;;;9.90;99.90;;;;;;5023934;28;20506;-60
2022/12/29 13:03:54;;;;;;;7.15;0.98;;;9.80;99.90;;;;;;5023901;28;20443;-60
2022/12/29 13:06:47;;;;;;;11.65;1.48;;;9.70;99.90;;;;;;5024026;28;20076;-60
2022/12/29 13:09:37;;;;;;;10.90;2.05;;;9.60;99.90;;;;;;4994227;28;20512;-60
2022/12/29 13:12:21;;;;;;;14.85;1.23;;;9.50;99.90;;;;;;5016271;28;20678;-60
2022/12/29 13:15:10;;;;;;;25.80;3.15;;;9.40;99.90;;;;;;5011330;28;20092;-60
2022/12/29 13:18:00;;;;;;;28.95;2.80;;;9.50;99.90;;;;;;5002446;28;20084;-60
2022/12/29 13:20:53;;;;;;;10.32;1.58;;;9.50;99.90;;;;;;5023218;28;20072;-60
2022/12/29 13:23:36;;;;;;;19.55;3.03;;;9.50;99.90;;;;;;5011737;28;20049;-60
2022/12/29 13:26:17;;;;;;;8.77;1.20;;;9.50;99.90;;;;;;5021472;28;20052;-60
2022/12/29 13:28:57;;;;;;;13.85;1.85;;;9.50;99.90;;;;;;5013912;28;20041;-60
2022/12/29 13:31:38;;;;;;;12.40;2.20;;;9.50;99.90;;;;;;5022160;28;20041;-60
2022/12/29 13:34:32;;;;;;;7.57;1.20;;;9.50;99.90;;;;;;5016001;28;20133;-60
2022/12/29 13:37:13;;;;;;;18.25;1.95;;;9.50;99.90;;;;;;4999967;28;20045;-60
2022/12/29 13:39:43;;;;;;;20.75;2.20;;;9.50;99.90;;;;;;5005758;28;20080;-60
2022/12/29 13:42:10;;;;;;;7.07;1.73;;;9.50;99.90;;;;;;5023007;28;20038;-60
2022/12/29 13:44:48;;;;;;;13.18;2.08;;;9.50;99.90;;;;;;5000870;28;20139;-61
2022/12/29 13:47:36;;;;;;;9.85;1.42;;;9.50;99.90;;;;;;5004982;28;20057;-60
2022/12/29 13:50:06;;;;;;;12.85;1.80;;;9.50;99.90;;;;;;5023862;28;20050;-60